sensor_id;sensor_type;location;lat;lon;timestamp;pressure;altitude;pressure_sealevel;temperature;humidity
80585;BME280;70137;56.482;9.154;2023-08-07T00:02:08;100380.97;;;14.72;77.41
80585;BME280;70137;56.482;9.154;2023-08-07T00:04:34;100387.22;;;14.71;77.33
80585;BME280;70137;56.482;9.154;2023-08-07T00:06:59;100387.22;;;14.71;77.12
80585;BME280;70137;56.482;9.154;2023-08-07T00:09:24;100383.59;;;14.72;77.89
80585;BME280;70137;56.482;9.154;2023-08-07T00:11:49;100372.56;;;14.70;78.14
80585;BME280;70137;56.482;9.154;2023-08-07T00:14:15;100365.72;;;14.69;77.76
80585;BME280;70137;56.482;9.154;2023-08-07T00:16:41;100368.94;;;14.71;77.92
80585;BME280;70137;56.482;9.154;2023-08-07T00:19:06;100369.75;;;14.71;77.97
80585;BME280;70137;56.482;9.154;2023-08-07T00:21:31;100366.34;;;14.71;78.55
80585;BME280;70137;56.482;9.154;2023-08-07T00:23:57;100357.91;;;14.69;79.08
80585;BME280;70137;56.482;9.154;2023-08-07T00:26:22;100368.13;;;14.70;79.05
80585;BME280;70137;56.482;9.154;2023-08-07T00:28:47;100373.34;;;14.70;78.84
80585;BME280;70137;56.482;9.154;2023-08-07T00:31:13;100365.31;;;14.72;78.24
80585;BME280;70137;56.482;9.154;2023-08-07T00:33:38;100362.72;;;14.72;78.80
80585;BME280;70137;56.482;9.154;2023-08-07T00:36:04;100365.31;;;14.72;79.13
80585;BME280;70137;56.482;9.154;2023-08-07T00:38:29;100363.72;;;14.71;78.35
80585;BME280;70137;56.482;9.154;2023-08-07T00:40:55;100363.72;;;14.71;78.21
80585;BME280;70137;56.482;9.154;2023-08-07T00:43:20;100353.28;;;14.71;78.34
80585;BME280;70137;56.482;9.154;2023-08-07T00:45:46;100350.69;;;14.71;78.31
80585;BME280;70137;56.482;9.154;2023-08-07T00:48:13;100339.66;;;14.69;77.80
80585;BME280;70137;56.482;9.154;2023-08-07T00:50:41;100337.03;;;14.69;77.43
80585;BME280;70137;56.482;9.154;2023-08-07T00:53:07;100330.22;;;14.68;77.42
80585;BME280;70137;56.482;9.154;2023-08-07T00:55:33;100328.59;;;14.67;77.24
80585;BME280;70137;56.482;9.154;2023-08-07T00:57:58;100318.34;;;14.65;77.23
80585;BME280;70137;56.482;9.154;2023-08-07T01:00:26;100302.09;;;14.63;77.26
80585;BME280;70137;56.482;9.154;2023-08-07T01:02:52;100291.66;;;14.63;76.66
80585;BME280;70137;56.482;9.154;2023-08-07T01:05:19;100295.50;;;14.60;77.12
80585;BME280;70137;56.482;9.154;2023-08-07T01:07:46;100293.28;;;14.57;76.85
80585;BME280;70137;56.482;9.154;2023-08-07T01:10:12;100278.63;;;14.56;76.84
80585;BME280;70137;56.482;9.154;2023-08-07T01:12:47;100282.44;;;14.54;76.83
80585;BME280;70137;56.482;9.154;2023-08-07T01:15:16;100269.59;;;14.52;77.39
80585;BME280;70137;56.482;9.154;2023-08-07T01:17:44;100274.00;;;14.52;76.72
80585;BME280;70137;56.482;9.154;2023-08-07T01:20:11;100258.78;;;14.49;77.09
80585;BME280;70137;56.482;9.154;2023-08-07T01:22:36;100250.31;;;14.47;76.86
80585;BME280;70137;56.482;9.154;2023-08-07T01:25:02;100239.88;;;14.47;76.74
80585;BME280;70137;56.482;9.154;2023-08-07T01:30:17;100233.25;;;14.44;76.68
80585;BME280;70137;56.482;9.154;2023-08-07T01:33:07;100231.66;;;14.43;77.51
80585;BME280;70137;56.482;9.154;2023-08-07T01:35:41;100222.22;;;14.42;78.28
80585;BME280;70137;56.482;9.154;2023-08-07T01:38:08;100213.59;;;14.42;78.13
80585;BME280;70137;56.482;9.154;2023-08-07T01:40:37;100209.38;;;14.41;77.90
80585;BME280;70137;56.482;9.154;2023-08-07T01:43:04;100209.38;;;14.41;77.94
80585;BME280;70137;56.482;9.154;2023-08-07T01:45:29;100201.34;;;14.42;79.17
80585;BME280;70137;56.482;9.154;2023-08-07T01:47:55;100190.94;;;14.42;79.10
80585;BME280;70137;56.482;9.154;2023-08-07T01:50:21;100186.50;;;14.43;79.71
80585;BME280;70137;56.482;9.154;2023-08-07T01:52:47;100193.53;;;14.42;79.26
80585;BME280;70137;56.482;9.154;2023-08-07T01:55:17;100170.88;;;14.43;79.63
80585;BME280;70137;56.482;9.154;2023-08-07T01:57:42;100172.47;;;14.44;80.04
80585;BME280;70137;56.482;9.154;2023-08-07T02:00:09;100160.22;;;14.44;79.74
80585;BME280;70137;56.482;9.154;2023-08-07T02:02:35;100159.25;;;14.45;79.98
80585;BME280;70137;56.482;9.154;2023-08-07T02:05:01;100159.25;;;14.45;80.44
80585;BME280;70137;56.482;9.154;2023-08-07T02:07:26;100143.59;;;14.45;80.61
80585;BME280;70137;56.482;9.154;2023-08-07T02:09:51;100144.41;;;14.46;80.96
80585;BME280;70137;56.482;9.154;2023-08-07T02:12:16;100139.81;;;14.48;80.86
80585;BME280;70137;56.482;9.154;2023-08-07T02:14:42;100138.00;;;14.48;81.60
80585;BME280;70137;56.482;9.154;2023-08-07T02:17:07;100136.19;;;14.49;81.35
80585;BME280;70137;56.482;9.154;2023-08-07T02:19:33;100139.59;;;14.49;81.24
80585;BME280;70137;56.482;9.154;2023-08-07T02:21:58;100137.00;;;14.49;81.60
80585;BME280;70137;56.482;9.154;2023-08-07T02:24:24;100132.38;;;14.51;81.23
80585;BME280;70137;56.482;9.154;2023-08-07T02:26:49;100146.00;;;14.53;81.91
80585;BME280;70137;56.482;9.154;2023-08-07T02:29:14;100150.44;;;14.53;81.63
80585;BME280;70137;56.482;9.154;2023-08-07T02:31:40;100140.59;;;14.55;81.98
80585;BME280;70137;56.482;9.154;2023-08-07T02:34:05;100137.19;;;14.54;81.53
80585;BME280;70137;56.482;9.154;2023-08-07T02:36:30;100137.78;;;14.56;81.82
80585;BME280;70137;56.482;9.154;2023-08-07T02:38:56;100136.78;;;14.57;81.62
80585;BME280;70137;56.482;9.154;2023-08-07T02:41:21;100133.97;;;14.59;81.77
80585;BME280;70137;56.482;9.154;2023-08-07T02:43:46;100134.19;;;14.57;81.54
80585;BME280;70137;56.482;9.154;2023-08-07T02:46:11;100133.97;;;14.59;81.50
80585;BME280;70137;56.482;9.154;2023-08-07T02:48:37;100137.19;;;14.61;81.67
80585;BME280;70137;56.482;9.154;2023-08-07T02:51:02;100137.19;;;14.61;81.80
80585;BME280;70137;56.482;9.154;2023-08-07T02:53:27;100137.97;;;14.62;81.14
80585;BME280;70137;56.482;9.154;2023-08-07T02:55:53;100117.09;;;14.62;81.27
80585;BME280;70137;56.482;9.154;2023-08-07T02:58:18;100116.09;;;14.63;81.46
80585;BME280;70137;56.482;9.154;2023-08-07T03:00:43;100123.13;;;14.62;81.57
80585;BME280;70137;56.482;9.154;2023-08-07T03:03:09;100120.31;;;14.64;81.20
80585;BME280;70137;56.482;9.154;2023-08-07T03:05:34;100114.09;;;14.65;81.80
80585;BME280;70137;56.482;9.154;2023-08-07T03:07:59;100112.06;;;14.67;82.26
80585;BME280;70137;56.482;9.154;2023-08-07T03:10:25;100094.81;;;14.66;82.01
80585;BME280;70137;56.482;9.154;2023-08-07T03:12:50;100081.78;;;14.66;81.94
80585;BME280;70137;56.482;9.154;2023-08-07T03:15:15;100082.56;;;14.66;82.13
80585;BME280;70137;56.482;9.154;2023-08-07T03:17:40;100081.78;;;14.66;82.59
80585;BME280;70137;56.482;9.154;2023-08-07T03:20:06;100078.97;;;14.67;81.82
80585;BME280;70137;56.482;9.154;2023-08-07T03:22:31;100077.16;;;14.68;82.08
80585;BME280;70137;56.482;9.154;2023-08-07T03:24:57;100054.69;;;14.67;81.83
80585;BME280;70137;56.482;9.154;2023-08-07T03:27:22;100054.50;;;14.68;81.83
80585;BME280;70137;56.482;9.154;2023-08-07T03:29:47;100053.69;;;14.68;82.92
80585;BME280;70137;56.482;9.154;2023-08-07T03:32:13;100053.47;;;14.69;82.71
80585;BME280;70137;56.482;9.154;2023-08-07T03:34:38;100047.47;;;14.69;82.59
80585;BME280;70137;56.482;9.154;2023-08-07T03:37:03;100036.03;;;14.70;82.51
80585;BME280;70137;56.482;9.154;2023-08-07T03:39:29;100029.22;;;14.69;82.59
80585;BME280;70137;56.482;9.154;2023-08-07T03:41:54;100023.78;;;14.70;82.43
80585;BME280;70137;56.482;9.154;2023-08-07T03:44:19;100014.13;;;14.71;82.27
80585;BME280;70137;56.482;9.154;2023-08-07T03:46:45;100008.94;;;14.71;82.34
80585;BME280;70137;56.482;9.154;2023-08-07T03:49:10;100007.31;;;14.70;82.18
80585;BME280;70137;56.482;9.154;2023-08-07T03:51:35;100008.94;;;14.71;83.02
80585;BME280;70137;56.482;9.154;2023-08-07T03:54:01;100002.69;;;14.72;82.98
80585;BME280;70137;56.482;9.154;2023-08-07T03:56:26;100010.53;;;14.72;82.73
80585;BME280;70137;56.482;9.154;2023-08-07T03:58:51;100008.72;;;14.72;83.09
80585;BME280;70137;56.482;9.154;2023-08-07T04:01:17;100000.88;;;14.72;82.78
80585;BME280;70137;56.482;9.154;2023-08-07T04:03:42;99996.47;;;14.73;82.85
80585;BME280;70137;56.482;9.154;2023-08-07T04:06:07;99993.84;;;14.73;83.14
80585;BME280;70137;56.482;9.154;2023-08-07T04:08:33;99987.63;;;14.74;83.02
80585;BME280;70137;56.482;9.154;2023-08-07T04:11:02;99984.00;;;14.75;83.22
80585;BME280;70137;56.482;9.154;2023-08-07T04:13:28;99985.59;;;14.76;82.63
80585;BME280;70137;56.482;9.154;2023-08-07T04:15:54;99988.22;;;14.76;83.20
80585;BME280;70137;56.482;9.154;2023-08-07T04:18:19;99983.00;;;14.76;82.58
80585;BME280;70137;56.482;9.154;2023-08-07T04:20:55;99984.63;;;14.77;83.34
80585;BME280;70137;56.482;9.154;2023-08-07T04:23:22;99982.03;;;14.77;83.27
80585;BME280;70137;56.482;9.154;2023-08-07T04:25:48;99981.00;;;14.78;82.92
80585;BME280;70137;56.482;9.154;2023-08-07T04:28:13;99977.38;;;14.79;83.36
80585;BME280;70137;56.482;9.154;2023-08-07T04:30:39;99970.56;;;14.78;83.03
80585;BME280;70137;56.482;9.154;2023-08-07T04:33:05;99968.97;;;14.77;82.84
80585;BME280;70137;56.482;9.154;2023-08-07T04:35:30;99976.59;;;14.78;82.94
80585;BME280;70137;56.482;9.154;2023-08-07T04:37:56;99969.56;;;14.79;83.16
80585;BME280;70137;56.482;9.154;2023-08-07T04:40:21;99960.94;;;14.78;82.93
80585;BME280;70137;56.482;9.154;2023-08-07T04:42:49;99955.72;;;14.78;82.94
80585;BME280;70137;56.482;9.154;2023-08-07T04:45:14;99959.72;;;14.81;83.31
80585;BME280;70137;56.482;9.154;2023-08-07T04:47:39;99955.50;;;14.80;82.98
80585;BME280;70137;56.482;9.154;2023-08-07T04:50:05;99954.50;;;14.81;83.41
80585;BME280;70137;56.482;9.154;2023-08-07T04:52:31;99949.06;;;14.82;82.79
80585;BME280;70137;56.482;9.154;2023-08-07T04:54:56;99955.06;;;14.83;83.32
80585;BME280;70137;56.482;9.154;2023-08-07T04:57:21;99956.88;;;14.82;83.17
80585;BME280;70137;56.482;9.154;2023-08-07T04:59:46;99948.84;;;14.84;83.21
80585;BME280;70137;56.482;9.154;2023-08-07T05:02:12;99958.88;;;14.87;83.56
80585;BME280;70137;56.482;9.154;2023-08-07T05:04:37;99957.25;;;14.86;83.56
80585;BME280;70137;56.482;9.154;2023-08-07T05:07:02;99947.66;;;14.86;83.39
80585;BME280;70137;56.482;9.154;2023-08-07T05:09:28;99951.63;;;14.89;83.20
80585;BME280;70137;56.482;9.154;2023-08-07T05:11:54;99945.63;;;14.88;83.04
80585;BME280;70137;56.482;9.154;2023-08-07T05:14:19;99942.78;;;14.90;83.28
80585;BME280;70137;56.482;9.154;2023-08-07T05:16:44;99948.81;;;14.91;83.22
80585;BME280;70137;56.482;9.154;2023-08-07T05:19:09;99946.00;;;14.92;82.67
80585;BME280;70137;56.482;9.154;2023-08-07T05:21:35;99938.16;;;14.92;83.11
80585;BME280;70137;56.482;9.154;2023-08-07T05:24:00;99946.78;;;14.93;82.75
80585;BME280;70137;56.482;9.154;2023-08-07T05:26:25;99940.56;;;14.94;83.08
80585;BME280;70137;56.482;9.154;2023-08-07T05:28:51;99941.34;;;14.94;82.72
80585;BME280;70137;56.482;9.154;2023-08-07T05:31:16;99951.56;;;14.96;82.90
80585;BME280;70137;56.482;9.154;2023-08-07T05:33:41;99946.56;;;14.94;82.80
80585;BME280;70137;56.482;9.154;2023-08-07T05:36:06;99947.97;;;14.97;82.43
80585;BME280;70137;56.482;9.154;2023-08-07T05:38:32;99942.75;;;14.97;82.53
80585;BME280;70137;56.482;9.154;2023-08-07T05:40:57;99940.94;;;14.97;82.57
80585;BME280;70137;56.482;9.154;2023-08-07T05:43:22;99940.94;;;14.97;82.85
80585;BME280;70137;56.482;9.154;2023-08-07T05:45:48;99946.16;;;14.97;82.50
80585;BME280;70137;56.482;9.154;2023-08-07T05:48:14;99938.34;;;14.97;82.47
80585;BME280;70137;56.482;9.154;2023-08-07T05:50:41;99934.94;;;14.97;82.28
80585;BME280;70137;56.482;9.154;2023-08-07T05:53:06;99933.13;;;14.97;82.48
80585;BME280;70137;56.482;9.154;2023-08-07T05:55:32;99932.31;;;14.97;82.32
80585;BME280;70137;56.482;9.154;2023-08-07T05:57:57;99933.91;;;14.98;82.06
80585;BME280;70137;56.482;9.154;2023-08-07T06:00:22;99934.72;;;14.98;82.56
80585;BME280;70137;56.482;9.154;2023-08-07T06:02:48;99923.25;;;14.99;82.48
80585;BME280;70137;56.482;9.154;2023-08-07T06:05:13;99929.06;;;15.01;82.04
80585;BME280;70137;56.482;9.154;2023-08-07T06:07:40;99930.09;;;15.00;82.56
80585;BME280;70137;56.482;9.154;2023-08-07T06:10:05;99934.28;;;15.01;82.24
80585;BME280;70137;56.482;9.154;2023-08-07T06:12:31;99935.09;;;15.02;82.27
80585;BME280;70137;56.482;9.154;2023-08-07T06:14:56;99928.06;;;15.02;82.17
80585;BME280;70137;56.482;9.154;2023-08-07T06:17:21;99921.81;;;15.03;81.93
80585;BME280;70137;56.482;9.154;2023-08-07T06:19:47;99921.81;;;15.03;82.42
80585;BME280;70137;56.482;9.154;2023-08-07T06:22:12;99915.00;;;15.02;82.18
80585;BME280;70137;56.482;9.154;2023-08-07T06:24:38;99921.81;;;15.03;82.28
80585;BME280;70137;56.482;9.154;2023-08-07T06:27:03;99922.63;;;15.04;82.04
80585;BME280;70137;56.482;9.154;2023-08-07T06:29:29;99934.88;;;15.03;81.42
80585;BME280;70137;56.482;9.154;2023-08-07T06:31:54;99916.38;;;15.05;81.91
80585;BME280;70137;56.482;9.154;2023-08-07T06:34:19;99919.78;;;15.05;82.14
80585;BME280;70137;56.482;9.154;2023-08-07T06:36:45;99916.38;;;15.05;81.96
80585;BME280;70137;56.482;9.154;2023-08-07T06:39:10;99910.38;;;15.04;82.05
80585;BME280;70137;56.482;9.154;2023-08-07T06:41:37;99916.19;;;15.06;81.81
80585;BME280;70137;56.482;9.154;2023-08-07T06:44:02;99912.78;;;15.06;81.98
80585;BME280;70137;56.482;9.154;2023-08-07T06:46:27;99906.75;;;15.05;81.89
80585;BME280;70137;56.482;9.154;2023-08-07T06:48:53;99921.41;;;15.06;81.87
80585;BME280;70137;56.482;9.154;2023-08-07T06:51:19;99920.41;;;15.07;81.78
80585;BME280;70137;56.482;9.154;2023-08-07T06:53:44;99910.75;;;15.08;81.88
80585;BME280;70137;56.482;9.154;2023-08-07T06:56:09;99912.13;;;15.10;81.65
80585;BME280;70137;56.482;9.154;2023-08-07T06:58:35;99906.91;;;15.10;82.07
80585;BME280;70137;56.482;9.154;2023-08-07T07:01:00;99907.28;;;15.14;82.30
80585;BME280;70137;56.482;9.154;2023-08-07T07:03:26;99907.28;;;15.14;81.50
80585;BME280;70137;56.482;9.154;2023-08-07T07:05:51;99907.28;;;15.14;81.96
80585;BME280;70137;56.482;9.154;2023-08-07T07:08:16;99903.66;;;15.15;81.59
80585;BME280;70137;56.482;9.154;2023-08-07T07:10:42;99905.28;;;15.16;81.38
80585;BME280;70137;56.482;9.154;2023-08-07T07:13:07;99900.84;;;15.16;81.88
80585;BME280;70137;56.482;9.154;2023-08-07T07:15:34;99898.59;;;15.20;81.09
80585;BME280;70137;56.482;9.154;2023-08-07T07:18:00;99883.97;;;15.19;81.38
80585;BME280;70137;56.482;9.154;2023-08-07T07:20:25;99888.75;;;15.22;81.72
80585;BME280;70137;56.482;9.154;2023-08-07T07:22:52;99891.13;;;15.24;81.25
80585;BME280;70137;56.482;9.154;2023-08-07T07:25:17;99868.66;;;15.23;80.71
80585;BME280;70137;56.482;9.154;2023-08-07T07:27:42;99879.09;;;15.23;81.04
80585;BME280;70137;56.482;9.154;2023-08-07T07:30:08;99871.84;;;15.25;80.81
80585;BME280;70137;56.482;9.154;2023-08-07T07:32:34;99859.41;;;15.27;81.11
80585;BME280;70137;56.482;9.154;2023-08-07T07:34:59;99859.31;;;15.33;80.98
80585;BME280;70137;56.482;9.154;2023-08-07T07:37:24;99854.25;;;15.38;80.44
80585;BME280;70137;56.482;9.154;2023-08-07T07:39:50;99854.41;;;15.43;80.59
80585;BME280;70137;56.482;9.154;2023-08-07T07:42:15;99841.50;;;15.49;79.39
80585;BME280;70137;56.482;9.154;2023-08-07T07:44:40;99843.09;;;15.50;79.34
80585;BME280;70137;56.482;9.154;2023-08-07T07:47:07;99849.28;;;15.55;79.87
80585;BME280;70137;56.482;9.154;2023-08-07T07:49:32;99847.03;;;15.59;79.23
80585;BME280;70137;56.482;9.154;2023-08-07T07:51:58;99842.59;;;15.59;79.47
80585;BME280;70137;56.482;9.154;2023-08-07T07:54:23;99838.78;;;15.62;79.27
80585;BME280;70137;56.482;9.154;2023-08-07T07:56:49;99838.13;;;15.66;79.76
80585;BME280;70137;56.482;9.154;2023-08-07T07:59:14;99835.88;;;15.70;79.85
80585;BME280;70137;56.482;9.154;2023-08-07T08:01:40;99832.00;;;15.72;79.38
80585;BME280;70137;56.482;9.154;2023-08-07T08:04:06;99834.44;;;15.74;79.28
80585;BME280;70137;56.482;9.154;2023-08-07T08:06:32;99835.22;;;15.74;78.55
80585;BME280;70137;56.482;9.154;2023-08-07T08:08:57;99836.81;;;15.76;78.02
80585;BME280;70137;56.482;9.154;2023-08-07T08:11:22;99829.56;;;15.78;78.67
80585;BME280;70137;56.482;9.154;2023-08-07T08:13:48;99841.16;;;15.82;78.43
80585;BME280;70137;56.482;9.154;2023-08-07T08:16:14;99826.09;;;15.84;78.69
80585;BME280;70137;56.482;9.154;2023-08-07T08:18:40;99822.88;;;15.82;79.11
80585;BME280;70137;56.482;9.154;2023-08-07T08:21:05;99821.88;;;15.83;78.05
80585;BME280;70137;56.482;9.154;2023-08-07T08:23:31;99809.38;;;15.85;78.73
80585;BME280;70137;56.482;9.154;2023-08-07T08:25:57;99806.09;;;15.89;79.12
80585;BME280;70137;56.482;9.154;2023-08-07T08:28:22;99804.28;;;15.90;78.84
80585;BME280;70137;56.482;9.154;2023-08-07T08:30:48;99803.84;;;15.93;78.85
80585;BME280;70137;56.482;9.154;2023-08-07T08:33:13;99796.81;;;15.93;78.98
80585;BME280;70137;56.482;9.154;2023-08-07T08:35:39;99805.22;;;15.95;79.17
80585;BME280;70137;56.482;9.154;2023-08-07T08:38:05;99798.75;;;15.98;78.45
80585;BME280;70137;56.482;9.154;2023-08-07T08:40:31;99793.31;;;15.99;78.48
80585;BME280;70137;56.482;9.154;2023-08-07T08:42:59;99793.06;;;16.01;78.29
80585;BME280;70137;56.482;9.154;2023-08-07T08:45:26;99792.88;;;16.02;78.02
80585;BME280;70137;56.482;9.154;2023-08-07T08:47:58;99783.78;;;16.05;77.72
80585;BME280;70137;56.482;9.154;2023-08-07T08:50:26;99790.03;;;16.04;77.13
80585;BME280;70137;56.482;9.154;2023-08-07T08:52:53;99787.84;;;16.01;77.17
80585;BME280;70137;56.482;9.154;2023-08-07T08:55:19;99785.84;;;16.03;78.02
80585;BME280;70137;56.482;9.154;2023-08-07T08:57:46;99783.34;;;16.08;77.96
80585;BME280;70137;56.482;9.154;2023-08-07T09:00:13;99795.75;;;16.13;77.35
80585;BME280;70137;56.482;9.154;2023-08-07T09:02:51;99797.56;;;16.12;77.10
80585;BME280;70137;56.482;9.154;2023-08-07T09:05:18;99793.34;;;16.11;77.34
80585;BME280;70137;56.482;9.154;2023-08-07T09:07:45;99784.06;;;16.15;77.25
80585;BME280;70137;56.482;9.154;2023-08-07T09:10:12;99780.41;;;16.16;77.07
80585;BME280;70137;56.482;9.154;2023-08-07T09:12:40;99776.78;;;16.17;76.40
80585;BME280;70137;56.482;9.154;2023-08-07T09:15:07;99780.56;;;16.21;76.79
80585;BME280;70137;56.482;9.154;2023-08-07T09:17:40;99776.47;;;16.25;76.35
80585;BME280;70137;56.482;9.154;2023-08-07T09:20:06;99767.81;;;16.25;76.09
80585;BME280;70137;56.482;9.154;2023-08-07T09:22:36;99774.88;;;16.24;75.39
80585;BME280;70137;56.482;9.154;2023-08-07T09:25:01;99769.88;;;16.23;75.53
80585;BME280;70137;56.482;9.154;2023-08-07T09:27:26;99774.66;;;16.26;76.43
80585;BME280;70137;56.482;9.154;2023-08-07T09:29:54;99776.56;;;16.30;75.97
80585;BME280;70137;56.482;9.154;2023-08-07T09:32:19;99776.81;;;16.29;75.22
80585;BME280;70137;56.482;9.154;2023-08-07T09:34:48;99769.75;;;16.29;75.46
80585;BME280;70137;56.482;9.154;2023-08-07T09:37:14;99768.72;;;16.30;75.05
80585;BME280;70137;56.482;9.154;2023-08-07T09:39:40;99767.72;;;16.31;74.71
80585;BME280;70137;56.482;9.154;2023-08-07T09:42:13;99785.69;;;16.40;74.01
80585;BME280;70137;56.482;9.154;2023-08-07T09:44:40;99776.25;;;16.39;73.58
80585;BME280;70137;56.482;9.154;2023-08-07T09:47:13;99774.66;;;16.38;73.55
80585;BME280;70137;56.482;9.154;2023-08-07T09:49:39;99770.59;;;16.42;74.64
80585;BME280;70137;56.482;9.154;2023-08-07T09:52:06;99774.69;;;16.49;74.06
80585;BME280;70137;56.482;9.154;2023-08-07T09:54:33;99766.97;;;16.54;73.52
80585;BME280;70137;56.482;9.154;2023-08-07T09:56:59;99766.19;;;16.54;73.37
80585;BME280;70137;56.482;9.154;2023-08-07T09:59:26;99761.28;;;16.46;72.77
80585;BME280;70137;56.482;9.154;2023-08-07T10:01:52;99759.13;;;16.43;73.81
80585;BME280;70137;56.482;9.154;2023-08-07T10:04:18;99746.03;;;16.43;73.75
80585;BME280;70137;56.482;9.154;2023-08-07T10:06:43;99761.97;;;16.41;74.22
80585;BME280;70137;56.482;9.154;2023-08-07T10:09:09;99751.84;;;16.45;74.00
80585;BME280;70137;56.482;9.154;2023-08-07T10:11:34;99760.69;;;16.44;73.71
80585;BME280;70137;56.482;9.154;2023-08-07T10:14:00;99759.53;;;16.40;74.71
80585;BME280;70137;56.482;9.154;2023-08-07T10:16:26;99752.72;;;16.39;74.48
80585;BME280;70137;56.482;9.154;2023-08-07T10:18:53;99766.97;;;16.43;74.75
80585;BME280;70137;56.482;9.154;2023-08-07T10:21:19;99770.84;;;16.52;74.52
80585;BME280;70137;56.482;9.154;2023-08-07T10:23:45;99761.50;;;16.56;75.38
80585;BME280;70137;56.482;9.154;2023-08-07T10:26:12;99757.78;;;16.64;75.36
80585;BME280;70137;56.482;9.154;2023-08-07T10:28:39;99755.19;;;16.75;74.58
80585;BME280;70137;56.482;9.154;2023-08-07T10:31:06;99763.50;;;16.84;73.74
80585;BME280;70137;56.482;9.154;2023-08-07T10:33:33;99757.94;;;16.80;73.29
80585;BME280;70137;56.482;9.154;2023-08-07T10:35:58;99757.47;;;16.83;73.67
80585;BME280;70137;56.482;9.154;2023-08-07T10:38:28;99755.97;;;16.87;73.40
80585;BME280;70137;56.482;9.154;2023-08-07T10:41:13;99765.53;;;16.94;73.70
80585;BME280;70137;56.482;9.154;2023-08-07T10:43:43;99755.06;;;16.94;72.73
80585;BME280;70137;56.482;9.154;2023-08-07T10:46:11;99744.59;;;16.94;72.63
80585;BME280;70137;56.482;9.154;2023-08-07T10:48:49;99756.56;;;16.90;73.51
80585;BME280;70137;56.482;9.154;2023-08-07T10:51:18;99738.66;;;16.98;72.94
80585;BME280;70137;56.482;9.154;2023-08-07T10:53:46;99743.00;;;17.04;73.19
80585;BME280;70137;56.482;9.154;2023-08-07T10:56:32;99746.53;;;17.10;71.32
80585;BME280;70137;56.482;9.154;2023-08-07T10:59:07;99747.09;;;17.12;71.24
80585;BME280;70137;56.482;9.154;2023-08-07T11:04:02;99740.59;;;17.14;71.00
80585;BME280;70137;56.482;9.154;2023-08-07T11:06:32;99727.28;;;17.16;71.51
80585;BME280;70137;56.482;9.154;2023-08-07T11:08:58;99751.28;;;17.25;71.76
80585;BME280;70137;56.482;9.154;2023-08-07T11:11:24;99752.19;;;17.30;70.85
80585;BME280;70137;56.482;9.154;2023-08-07T11:13:49;99752.63;;;17.39;71.24
80585;BME280;70137;56.482;9.154;2023-08-07T11:16:15;99751.00;;;17.50;70.73
80585;BME280;70137;56.482;9.154;2023-08-07T11:18:42;99743.34;;;17.60;70.82
80585;BME280;70137;56.482;9.154;2023-08-07T11:21:08;99744.03;;;17.67;69.86
80585;BME280;70137;56.482;9.154;2023-08-07T11:23:35;99736.84;;;17.62;69.09
80585;BME280;70137;56.482;9.154;2023-08-07T11:26:01;99734.47;;;17.61;69.91
80585;BME280;70137;56.482;9.154;2023-08-07T11:28:28;99741.75;;;17.59;68.86
80585;BME280;70137;56.482;9.154;2023-08-07T11:30:55;99733.56;;;17.55;70.23
80585;BME280;70137;56.482;9.154;2023-08-07T11:33:25;99749.63;;;17.59;69.55
80585;BME280;70137;56.482;9.154;2023-08-07T11:35:51;99743.72;;;17.52;70.12
80585;BME280;70137;56.482;9.154;2023-08-07T11:38:30;99736.09;;;17.50;69.19
80585;BME280;70137;56.482;9.154;2023-08-07T11:40:57;99737.13;;;17.49;69.44
80585;BME280;70137;56.482;9.154;2023-08-07T11:43:24;99737.56;;;17.46;69.41
80585;BME280;70137;56.482;9.154;2023-08-07T11:45:50;99741.69;;;17.42;69.36
80585;BME280;70137;56.482;9.154;2023-08-07T11:48:15;99758.69;;;17.39;69.27
80585;BME280;70137;56.482;9.154;2023-08-07T11:50:41;99740.78;;;17.36;70.17
80585;BME280;70137;56.482;9.154;2023-08-07T11:53:06;99728.16;;;17.33;69.89
80585;BME280;70137;56.482;9.154;2023-08-07T11:55:33;99732.28;;;17.29;70.70
80585;BME280;70137;56.482;9.154;2023-08-07T11:57:59;99744.94;;;17.21;69.42
80585;BME280;70137;56.482;9.154;2023-08-07T12:00:28;99737.63;;;17.23;70.64
80585;BME280;70137;56.482;9.154;2023-08-07T12:02:55;99726.25;;;17.29;70.42
80585;BME280;70137;56.482;9.154;2023-08-07T12:05:20;99743.00;;;17.28;69.56
80585;BME280;70137;56.482;9.154;2023-08-07T12:07:47;99744.78;;;17.27;68.64
80585;BME280;70137;56.482;9.154;2023-08-07T12:10:13;99735.44;;;17.31;68.70
80585;BME280;70137;56.482;9.154;2023-08-07T12:12:38;99740.22;;;17.34;69.03
80585;BME280;70137;56.482;9.154;2023-08-07T12:15:08;99749.00;;;17.40;68.84
80585;BME280;70137;56.482;9.154;2023-08-07T12:17:33;99748.75;;;17.41;68.45
80585;BME280;70137;56.482;9.154;2023-08-07T12:19:59;99753.56;;;17.33;68.75
80585;BME280;70137;56.482;9.154;2023-08-07T12:22:27;99747.53;;;17.32;69.23
80585;BME280;70137;56.482;9.154;2023-08-07T12:24:53;99749.56;;;17.30;69.30
80585;BME280;70137;56.482;9.154;2023-08-07T12:27:19;99736.69;;;17.40;69.69
80585;BME280;70137;56.482;9.154;2023-08-07T12:29:45;99753.75;;;17.43;68.39
80585;BME280;70137;56.482;9.154;2023-08-07T12:32:10;99753.28;;;17.46;68.90
80585;BME280;70137;56.482;9.154;2023-08-07T12:34:35;99737.25;;;17.42;67.44
80585;BME280;70137;56.482;9.154;2023-08-07T12:37:03;99736.56;;;17.35;67.90
80585;BME280;70137;56.482;9.154;2023-08-07T12:39:28;99745.47;;;17.34;68.34
80585;BME280;70137;56.482;9.154;2023-08-07T12:41:53;99748.88;;;17.35;67.95
80585;BME280;70137;56.482;9.154;2023-08-07T12:44:19;99732.50;;;17.28;66.98
80585;BME280;70137;56.482;9.154;2023-08-07T12:46:44;99746.19;;;17.18;67.80
80585;BME280;70137;56.482;9.154;2023-08-07T12:49:09;99747.34;;;17.10;68.13
80585;BME280;70137;56.482;9.154;2023-08-07T12:51:35;99750.63;;;17.06;68.44
80585;BME280;70137;56.482;9.154;2023-08-07T12:54:00;99735.94;;;17.05;68.71
80585;BME280;70137;56.482;9.154;2023-08-07T12:56:25;99729.59;;;17.01;68.56
80585;BME280;70137;56.482;9.154;2023-08-07T12:58:51;99749.72;;;17.00;68.09